Time;durP1;ratioP1;P1;durP2;ratioP2;P2;SDS_P1;SDS_P2;PMS_P1;PMS_P2;Temp;Humidity;BMP_temperature;BMP_pressure;BME280_temperature;BME280_humidity;BME280_pressure;Samples;Min_cycle;Max_cycle;Signal;HPM_P1;HPM_P2
2021/06/16 00:02:31;;;;;;;6.80;3.03;;;19.20;70.70;;;19.20;60.95;100714.13;4971932;28;20491;-79
2021/06/16 00:05:10;;;;;;;7.68;2.45;;;19.20;71.20;;;19.20;60.77;100710.53;4964008;28;20051;-79
2021/06/16 00:07:50;;;;;;;5.95;2.13;;;19.20;70.90;;;19.18;60.80;100720.97;4971546;28;20419;-79
2021/06/16 00:10:31;;;;;;;6.25;2.08;;;19.10;71.00;;;19.15;61.09;100716.75;4973147;28;20554;-79
2021/06/16 00:15:57;;;;;;;8.63;2.38;;;19.10;71.40;;;19.13;61.12;100713.38;4973067;28;19930;-79
2021/06/16 00:18:44;;;;;;;6.90;2.35;;;19.10;71.50;;;19.10;61.18;100709.19;4987496;23;20570;-87
2021/06/16 00:21:20;;;;;;;5.00;2.30;;;19.10;71.50;;;19.07;61.35;100712.41;4972869;28;20078;-87
2021/06/16 00:23:58;;;;;;;7.75;2.88;;;19.00;71.70;;;19.07;61.72;100708.81;4972939;28;20131;-86
2021/06/16 00:26:36;;;;;;;7.40;2.55;;;19.00;72.10;;;19.05;61.87;100706.28;4972808;28;20035;-88
2021/06/16 00:29:17;;;;;;;5.70;2.30;;;19.00;72.40;;;19.04;61.49;100704.63;4972506;28;20681;-89
2021/06/16 00:31:53;;;;;;;4.68;1.92;;;19.00;72.20;;;19.03;61.41;100702.94;4972811;28;20051;-89
2021/06/16 00:37:22;;;;;;;7.57;2.40;;;18.90;72.30;;;18.98;61.74;100705.53;4972239;28;20762;-88
2021/06/16 00:40:00;;;;;;;7.72;2.38;;;18.80;72.60;;;18.94;61.98;100701.56;4972697;28;20043;-89
2021/06/16 00:42:35;;;;;;;6.82;2.38;;;18.80;72.70;;;18.90;61.67;100692.09;4972289;28;20047;-89
2021/06/16 00:45:23;;;;;;;5.18;1.90;;;18.80;72.40;;;18.85;62.08;100692.81;4955569;28;20059;-89
2021/06/16 00:50:51;;;;;;;6.88;2.13;;;18.70;72.90;;;18.84;61.77;100695.81;4952910;28;20138;-90
2021/06/16 00:53:29;;;;;;;8.77;2.63;;;18.70;72.70;;;18.83;61.64;100688.59;4953207;28;20059;-90
2021/06/16 00:56:07;;;;;;;8.00;2.40;;;18.70;72.60;;;18.79;62.01;100690.09;4953005;28;20583;-89
2021/06/16 00:58:55;;;;;;;8.48;2.65;;;18.70;72.90;;;18.76;62.09;100686.75;4951178;29;20055;-89
2021/06/16 01:01:37;;;;;;;7.30;2.33;;;18.60;73.20;;;18.74;62.50;100688.91;4952941;28;20051;-89
2021/06/16 01:04:25;;;;;;;7.38;2.25;;;18.60;73.40;;;18.74;62.33;100683.38;4951709;29;20415;-89
2021/06/16 01:07:06;;;;;;;6.07;2.33;;;18.60;73.70;;;18.71;62.72;100683.84;4952686;28;20134;-88
2021/06/16 01:09:55;;;;;;;7.47;2.20;;;18.60;73.80;;;18.68;62.98;100684.34;4952951;28;20047;-89
2021/06/16 01:12:45;;;;;;;10.27;2.42;;;18.50;74.00;;;18.64;63.11;100685.88;4952757;28;20050;-89
2021/06/16 01:15:32;;;;;;;5.95;2.42;;;18.50;74.20;;;18.62;63.22;100684.41;4952749;28;20507;-89
2021/06/16 01:18:13;;;;;;;8.43;2.55;;;18.50;74.30;;;18.60;63.16;100679.16;4952229;28;20077;-88
2021/06/16 01:24:07;;;;;;;5.40;2.38;;;18.40;74.60;;;18.56;63.65;100683.44;4952454;28;20706;-89
2021/06/16 01:26:43;;;;;;;5.20;2.40;;;18.40;74.70;;;18.55;63.44;100674.34;4951735;29;20059;-90
2021/06/16 01:29:32;;;;;;;5.75;2.20;;;18.40;74.70;;;18.52;63.88;100679.47;4952023;29;20051;-89
2021/06/16 01:32:13;;;;;;;7.65;2.63;;;18.30;74.90;;;18.51;63.79;100677.81;4952206;28;20496;-90
2021/06/16 01:34:48;;;;;;;8.35;2.75;;;18.30;75.30;;;18.49;63.80;100674.44;4952262;28;20528;-89
2021/06/16 01:37:24;;;;;;;7.32;2.50;;;18.30;75.60;;;18.46;64.06;100669.38;4951927;28;20039;-89
2021/06/16 01:40:05;;;;;;;5.80;2.33;;;18.20;75.40;;;18.43;63.88;100659.69;4952250;28;20095;-89
2021/06/16 01:42:58;;;;;;;7.53;2.55;;;18.20;75.50;;;18.42;64.00;100659.91;4950885;29;20051;-89
2021/06/16 01:45:40;;;;;;;7.80;2.60;;;18.20;75.70;;;18.41;63.99;100660.97;4952120;28;20094;-89
2021/06/16 01:48:23;;;;;;;10.20;2.67;;;18.20;75.70;;;18.39;63.84;100655.72;4951787;28;20485;-89
2021/06/16 01:51:03;;;;;;;6.20;2.33;;;18.20;75.70;;;18.35;63.93;100647.06;4951769;28;20412;-89
2021/06/16 01:56:44;;;;;;;7.28;2.50;;;18.10;75.70;;;18.32;64.09;100647.53;4950453;29;20496;-89
2021/06/16 01:59:32;;;;;;;7.15;2.70;;;18.10;75.70;;;18.33;63.99;100646.47;4951550;28;20043;-90
2021/06/16 02:02:11;;;;;;;5.10;2.03;;;18.10;75.80;;;18.32;64.38;100650.28;4951816;28;20059;-89
2021/06/16 02:04:57;;;;;;;6.90;2.45;;;18.10;76.30;;;18.28;64.66;100651.81;4951793;28;20043;-89
2021/06/16 02:11:01;;;;;;;5.93;2.40;;;18.00;76.60;;;18.25;64.84;100652.28;5143013;27;20389;-88
2021/06/16 02:13:48;;;;;;;5.18;2.10;;;18.00;76.70;;;18.21;64.69;100648.31;5106106;28;20515;-89
2021/06/16 02:16:29;;;;;;;4.35;2.40;;;18.00;76.70;;;18.21;64.91;100647.47;5106649;28;20043;-88
2021/06/16 02:19:09;;;;;;;6.00;2.45;;;18.00;76.80;;;18.18;64.81;100651.50;5087279;28;20055;-88
2021/06/16 02:21:52;;;;;;;7.80;2.95;;;17.90;77.00;;;18.17;65.16;100644.34;5086199;28;20105;-88
2021/06/16 02:24:31;;;;;;;9.75;2.83;;;17.90;77.20;;;18.12;65.16;100645.00;5086035;28;20040;-88
2021/06/16 02:27:09;;;;;;;9.82;2.85;;;17.90;77.40;;;18.11;65.31;100648.03;5085823;28;20612;-89
2021/06/16 02:32:34;;;;;;;6.20;2.75;;;17.80;77.20;;;18.07;65.09;100647.63;5085718;28;20052;-89
2021/06/16 02:35:15;;;;;;;9.30;2.88;;;17.80;77.40;;;18.05;65.48;100635.16;5085763;28;20040;-89
2021/06/16 02:38:02;;;;;;;6.53;2.93;;;17.80;77.50;;;18.01;65.49;100629.28;5085640;28;20044;-88
2021/06/16 02:40:43;;;;;;;6.72;2.50;;;17.80;77.50;;;18.00;65.48;100637.78;5085682;28;20313;-89
2021/06/16 02:43:19;;;;;;;6.43;2.53;;;17.70;77.50;;;17.98;65.54;100633.31;5085731;28;20500;-89
2021/06/16 02:46:04;;;;;;;8.40;2.65;;;17.70;77.60;;;17.96;65.60;100626.38;5085584;28;20105;-88
2021/06/16 02:48:42;;;;;;;10.90;2.92;;;17.70;77.60;;;17.97;65.37;100631.66;5085243;28;20166;-88
2021/06/16 02:51:29;;;;;;;9.00;2.90;;;17.70;77.60;;;17.92;65.57;100623.25;5085415;28;20064;-88
2021/06/16 02:54:09;;;;;;;6.35;2.40;;;17.70;77.70;;;17.94;65.72;100626.59;5085612;28;20048;-88
2021/06/16 02:56:57;;;;;;;7.07;2.60;;;17.70;77.80;;;17.90;65.96;100621.81;5085509;28;20052;-87
2021/06/16 02:59:39;;;;;;;6.78;2.22;;;17.70;77.90;;;17.90;66.00;100621.81;5085513;28;20048;-88
2021/06/16 03:02:15;;;;;;;7.30;2.80;;;17.70;78.00;;;17.89;65.99;100614.59;5085251;28;20449;-88
2021/06/16 03:04:56;;;;;;;9.88;2.85;;;17.70;78.10;;;17.84;66.11;100620.81;5085297;28;20492;-89
2021/06/16 03:10:26;;;;;;;6.00;2.65;;;17.60;78.20;;;17.83;66.22;100623.75;5084794;28;20043;-88
2021/06/16 03:13:04;;;;;;;6.88;2.58;;;17.60;78.20;;;17.82;66.39;100619.31;5085032;28;20597;-87
2021/06/16 03:15:44;;;;;;;6.78;2.70;;;17.60;78.30;;;17.82;66.36;100619.31;5085234;28;20126;-89
2021/06/16 03:18:32;;;;;;;5.82;2.58;;;17.60;78.40;;;17.82;66.25;100624.81;5084672;28;20052;-89
2021/06/16 03:24:03;;;;;;;7.57;3.00;;;17.60;78.70;;;17.81;66.54;100617.66;5069784;28;20086;-89
2021/06/16 03:26:43;;;;;;;8.32;2.70;;;17.60;78.60;;;17.79;66.66;100615.94;5071424;28;20083;-89
2021/06/16 03:29:20;;;;;;;9.73;3.05;;;17.60;78.50;;;17.77;66.72;100617.25;5070875;28;20051;-89
2021/06/16 03:31:59;;;;;;;7.38;3.25;;;17.60;78.70;;;17.74;67.14;100617.69;5071342;28;20439;-88
2021/06/16 03:34:38;;;;;;;6.63;2.50;;;17.60;78.90;;;17.75;67.20;100620.22;5071092;28;20044;-88
2021/06/16 03:37:22;;;;;;;6.68;2.85;;;17.70;79.10;;;17.75;67.30;100616.66;5069898;28;20056;-88
2021/06/16 03:40:02;;;;;;;9.95;3.70;;;17.70;79.10;;;17.74;67.49;100613.06;5071085;28;20048;-89
2021/06/16 03:46:03;;;;;;;6.38;2.80;;;17.70;79.10;;;17.71;67.77;100607.19;5143004;27;20439;-89
2021/06/16 03:48:41;;;;;;;7.40;2.70;;;17.70;79.10;;;17.74;67.81;100612.19;5106180;28;20044;-88
2021/06/16 03:51:19;;;;;;;8.23;3.00;;;17.70;79.30;;;17.77;67.91;100609.00;5106534;28;20077;-88
2021/06/16 03:53:50;;;;;;;8.55;2.97;;;17.80;79.20;;;17.79;67.75;100609.59;5106354;28;20047;-89
2021/06/16 03:56:28;;;;;;;12.88;2.97;;;17.80;78.90;;;17.79;67.86;100604.09;5106312;28;20446;-89
2021/06/16 03:59:07;;;;;;;5.28;2.50;;;17.90;79.10;;;17.80;68.09;100605.81;5106004;28;20047;-89
2021/06/16 04:01:45;;;;;;;8.80;2.95;;;17.90;79.10;;;17.82;68.36;100592.63;5106303;28;20035;-88
2021/06/16 04:04:26;;;;;;;5.75;3.15;;;17.90;79.00;;;17.81;68.47;100601.97;5106105;28;20488;-89
2021/06/16 04:07:05;;;;;;;7.13;2.78;;;18.00;79.10;;;17.82;68.33;100597.28;5106018;28;20111;-89
2021/06/16 04:09:52;;;;;;;5.65;2.72;;;18.00;79.10;;;17.83;68.65;100594.31;5104810;28;20100;-89
2021/06/16 04:21:07;;;;;;;8.13;2.70;;;18.20;79.10;;;17.91;69.19;100585.75;5106021;28;20048;-90
2021/06/16 04:23:56;;;;;;;8.93;2.90;;;18.20;79.10;;;17.91;69.32;100571.16;5122282;28;20043;-92
2021/06/16 04:26:32;;;;;;;8.82;3.30;;;18.30;79.30;;;17.96;69.41;100583.16;5104991;28;20582;-89
2021/06/16 04:29:10;;;;;;;8.52;3.40;;;18.30;79.20;;;17.97;69.33;100584.84;5105350;28;20044;-88
2021/06/16 04:31:49;;;;;;;4.22;2.70;;;18.40;79.10;;;17.99;69.76;100581.84;5104373;28;20427;-88
2021/06/16 04:37:16;;;;;;;7.85;3.00;;;18.50;79.10;;;18.03;70.10;100577.56;5108048;28;20043;-89
2021/06/16 04:42:42;;;;;;;8.63;3.42;;;18.60;78.70;;;18.07;70.25;100566.94;5126006;28;20050;-89
2021/06/16 04:45:19;;;;;;;7.20;3.33;;;18.70;78.60;;;18.12;70.24;100570.63;5124397;28;20044;-89
2021/06/16 04:48:03;;;;;;;9.45;3.83;;;18.90;78.30;;;18.16;69.81;100569.13;5125595;28;20035;-88
2021/06/16 04:50:44;;;;;;;10.93;4.18;;;19.00;76.80;;;18.20;69.86;100568.63;5124506;28;20051;-89
2021/06/16 04:53:20;;;;;;;10.30;3.70;;;19.10;77.10;;;18.26;69.55;100568.56;5126281;28;20043;-88
2021/06/16 04:55:58;;;;;;;11.30;4.90;;;19.30;76.50;;;18.30;69.38;100564.25;5118583;27;20031;-89
2021/06/16 04:58:37;;;;;;;8.32;3.80;;;19.40;75.70;;;18.36;69.50;100559.72;5111717;28;20072;-90
2021/06/16 05:01:12;;;;;;;10.93;4.40;;;19.60;75.10;;;18.42;69.11;100563.44;5112057;28;20039;-88
2021/06/16 05:03:48;;;;;;;14.25;4.65;;;19.70;74.50;;;18.50;68.20;100555.66;5112026;28;20048;-89
2021/06/16 05:06:28;;;;;;;10.40;4.20;;;19.90;73.20;;;18.56;68.40;100553.88;5110331;28;20442;-90
2021/06/16 05:09:04;;;;;;;8.18;4.10;;;20.00;73.10;;;18.64;68.13;100558.22;5111445;28;20100;-86
2021/06/16 05:11:40;;;;;;;12.98;4.53;;;20.20;72.40;;;18.70;68.07;100549.84;5111833;28;20499;-90
2021/06/16 05:14:16;;;;;;;9.93;4.40;;;20.40;71.90;;;18.77;68.10;100555.22;5111892;28;20043;-91
2021/06/16 05:16:53;;;;;;;22.98;5.45;;;20.50;71.40;;;18.83;67.56;100547.97;5111798;28;20503;-91
2021/06/16 05:19:30;;;;;;;10.55;4.78;;;20.60;70.30;;;18.92;67.75;100552.03;5111489;28;20071;-90
2021/06/16 05:22:17;;;;;;;13.75;4.97;;;20.70;70.60;;;18.96;67.79;100550.50;5111679;28;20047;-91
2021/06/16 05:24:47;;;;;;;11.52;5.07;;;20.90;70.50;;;19.02;67.10;100540.41;5111919;28;20563;-92
2021/06/16 05:27:24;;;;;;;9.55;4.85;;;21.00;69.50;;;19.09;67.59;100535.63;5109780;28;20063;-92
2021/06/16 05:30:13;;;;;;;10.13;4.90;;;21.10;69.70;;;19.16;67.47;100543.78;5098591;28;20047;-85
2021/06/16 05:32:52;;;;;;;16.30;5.82;;;21.20;69.10;;;19.19;67.48;100535.88;5090518;28;20052;-89
2021/06/16 05:35:34;;;;;;;15.23;6.05;;;21.30;68.70;;;19.26;67.30;100532.97;5089357;28;20039;-89
2021/06/16 05:38:09;;;;;;;12.07;5.22;;;21.40;68.60;;;19.32;66.80;100537.50;5088230;28;20530;-90
2021/06/16 05:40:45;;;;;;;12.30;5.45;;;21.40;68.00;;;19.37;66.31;100526.59;5087221;28;20058;-90
2021/06/16 05:43:24;;;;;;;12.38;5.60;;;21.60;67.20;;;19.45;65.90;100539.19;5084063;28;20044;-90
2021/06/16 05:46:03;;;;;;;14.57;5.43;;;21.80;66.40;;;19.49;65.59;100530.16;5089909;28;20113;-92
2021/06/16 05:48:43;;;;;;;13.75;4.93;;;21.90;65.90;;;19.52;66.63;100526.91;5088677;28;20048;-92
2021/06/16 05:51:25;;;;;;;13.85;5.07;;;21.90;66.60;;;19.60;66.00;100530.41;5089239;28;20046;-91
2021/06/16 05:54:10;;;;;;;14.20;5.30;;;22.10;66.10;;;19.69;65.71;100523.41;5089165;28;20055;-92
2021/06/16 05:56:44;;;;;;;12.63;5.25;;;22.60;63.90;;;19.82;65.75;100531.44;5090901;28;20040;-93
2021/06/16 06:02:13;;;;;;;12.55;5.07;;;25.20;56.20;;;20.15;64.34;100520.72;5088586;28;20062;-91
2021/06/16 06:04:48;;;;;;;11.52;5.05;;;25.90;53.30;;;20.33;63.89;100522.41;5088710;28;20411;-87
2021/06/16 06:07:27;;;;;;;12.05;5.72;;;26.40;51.90;;;20.50;64.08;100523.28;5085739;28;20407;-89
2021/06/16 06:13:23;;;;;;;10.07;4.90;;;28.00;48.30;;;20.93;62.41;100513.50;5142327;27;20511;-88
2021/06/16 06:15:58;;;;;;;;;;;28.50;46.50;;;21.08;62.03;100510.94;5106422;28;20089;-88
2021/06/16 06:18:37;;;;;;;14.13;5.68;;;28.60;45.60;;;21.22;60.98;100513.34;5100062;22;19925;-89
2021/06/16 06:21:15;;;;;;;13.30;5.28;;;28.80;44.90;;;21.36;62.12;100505.50;5043312;28;20049;-89
2021/06/16 06:23:54;;;;;;;10.18;4.88;;;29.10;45.10;;;21.46;60.73;100508.44;5045329;28;20559;-83
2021/06/16 06:26:33;;;;;;;11.80;5.40;;;29.60;43.10;;;21.58;59.89;100505.56;5045197;28;20057;-82
2021/06/16 06:29:13;;;;;;;15.50;5.20;;;30.10;41.10;;;21.67;58.90;100504.84;5032348;28;20128;-82
2021/06/16 06:31:52;;;;;;;13.50;5.45;;;30.20;40.40;;;21.75;58.96;100506.31;5025499;28;20127;-83
2021/06/16 06:34:34;;;;;;;12.20;5.45;;;30.60;40.00;;;21.83;59.60;100489.22;5025277;28;20038;-82
2021/06/16 06:37:13;;;;;;;12.77;4.93;;;31.10;39.30;;;21.91;59.25;100499.00;5024922;28;20631;-82
2021/06/16 06:39:51;;;;;;;10.45;5.07;;;30.30;40.00;;;21.94;59.49;100497.66;5024670;28;20049;-82
2021/06/16 06:42:27;;;;;;;11.90;5.15;;;29.10;42.80;;;21.95;59.19;100494.63;5025167;28;20034;-83
2021/06/16 06:45:15;;;;;;;10.93;5.20;;;28.10;45.30;;;21.95;58.78;100499.31;5025114;28;20049;-83
2021/06/16 06:47:54;;;;;;;12.13;5.38;;;27.40;46.70;;;21.95;59.25;100497.41;5024885;28;20049;-82
2021/06/16 06:50:30;;;;;;;10.90;5.28;;;26.90;48.50;;;21.95;59.22;100491.84;5024714;28;20050;-82
2021/06/16 06:53:08;;;;;;;13.98;5.95;;;26.40;49.80;;;21.96;58.67;100489.91;5005354;28;20342;-82
2021/06/16 06:55:47;;;;;;;11.32;5.38;;;26.10;50.90;;;21.97;60.03;100491.56;5005582;28;20402;-91
2021/06/16 06:58:28;;;;;;;15.23;5.22;;;26.00;52.80;;;21.97;60.08;100486.03;4972017;28;20058;-87
2021/06/16 07:01:16;;;;;;;11.68;5.57;;;25.80;52.70;;;21.97;60.26;100478.56;5006589;28;20046;-84
2021/06/16 07:07:04;;;;;;;13.32;5.85;;;25.50;53.90;;;21.98;60.25;100473.84;5142554;27;20419;-83
2021/06/16 07:12:32;;;;;;;12.73;5.50;;;25.30;54.90;;;22.01;61.31;100465.88;5106140;28;20044;-84
2021/06/16 07:15:09;;;;;;;13.93;4.80;;;25.30;56.20;;;22.06;60.98;100465.06;5105016;28;20035;-84
2021/06/16 07:17:48;;;;;;;12.35;5.10;;;25.30;56.00;;;22.04;61.30;100458.94;5105732;28;20046;-83
2021/06/16 07:20:24;;;;;;;9.70;5.03;;;25.30;56.20;;;22.05;61.18;100455.09;5104859;28;20388;-85
2021/06/16 07:23:04;;;;;;;10.18;4.80;;;25.30;56.50;;;22.05;60.97;100455.09;5106022;28;20168;-80
2021/06/16 07:25:43;;;;;;;14.23;5.30;;;25.20;56.40;;;22.09;61.81;100449.88;5105870;28;20051;-83
2021/06/16 07:28:18;;;;;;;16.38;5.40;;;25.20;57.60;;;22.10;61.09;100446.81;5105559;28;20454;-83
2021/06/16 07:31:01;;;;;;;15.70;5.20;;;25.20;56.50;;;22.11;61.55;100448.50;5106004;28;20040;-86
2021/06/16 07:33:37;;;;;;;12.98;5.22;;;25.20;57.30;;;22.12;61.28;100444.59;5105812;28;20040;-84
2021/06/16 07:36:14;;;;;;;9.82;4.38;;;25.20;56.80;;;22.12;60.61;100444.59;5105591;28;20439;-87
2021/06/16 07:38:54;;;;;;;17.08;4.80;;;25.20;56.40;;;22.14;60.64;100439.66;5103735;28;20094;-89
2021/06/16 07:41:33;;;;;;;13.20;4.65;;;25.20;56.80;;;22.17;60.21;100435.50;5097138;28;20118;-87
2021/06/16 07:44:11;;;;;;;11.68;5.00;;;25.20;56.50;;;22.13;60.10;100435.19;5085400;28;20071;-87
2021/06/16 07:46:50;;;;;;;10.05;5.07;;;25.10;56.20;;;22.14;61.77;100431.34;5102218;28;20040;-87
2021/06/16 07:49:26;;;;;;;14.82;5.10;;;25.00;58.40;;;22.13;61.36;100429.66;5105217;28;20048;-88
2021/06/16 07:52:08;;;;;;;11.00;5.03;;;25.00;57.60;;;22.12;60.84;100427.97;5105039;28;20048;-88
2021/06/16 07:54:48;;;;;;;12.45;4.30;;;25.00;56.60;;;22.10;59.72;100418.25;5105513;28;20048;-85
2021/06/16 07:57:35;;;;;;;12.52;5.88;;;24.90;56.50;;;22.15;62.13;100427.47;5102817;28;20048;-86
2021/06/16 08:00:12;;;;;;;15.85;4.47;;;24.90;58.20;;;22.16;59.88;100426.38;5089690;28;20041;-92
2021/06/16 08:02:51;;;;;;;15.20;4.85;;;24.90;57.00;;;22.19;59.41;100425.00;5068066;28;20067;-89
2021/06/16 08:05:27;;;;;;;11.85;4.53;;;24.90;56.80;;;22.17;58.80;100422.47;5089697;28;20094;-88
2021/06/16 08:08:06;;;;;;;12.50;4.63;;;24.80;56.00;;;22.19;58.22;100416.69;5084232;28;20045;-87
2021/06/16 08:10:57;;;;;;;9.25;4.63;;;24.80;55.50;;;22.21;59.95;100417.25;5091422;28;20044;-88
2021/06/16 08:16:25;;;;;;;16.77;4.53;;;24.90;56.90;;;22.26;58.55;100414.56;5087594;28;20498;-88
2021/06/16 08:19:03;;;;;;;10.32;4.60;;;24.80;56.00;;;22.29;58.45;100404.88;5077537;28;20040;-88
2021/06/16 08:21:39;;;;;;;9.40;4.43;;;24.90;56.20;;;22.33;58.49;100403.22;5078890;28;20048;-89
2021/06/16 08:24:18;;;;;;;11.88;4.72;;;24.90;56.10;;;22.32;58.33;100391.31;5082162;28;20518;-83
2021/06/16 08:26:58;;;;;;;9.43;4.03;;;24.90;56.00;;;22.38;58.17;100392.19;5077821;28;20045;-90
2021/06/16 08:29:34;;;;;;;9.82;4.25;;;24.90;56.30;;;22.36;58.25;100395.22;5072875;28;20076;-86
2021/06/16 08:32:13;;;;;;;9.48;4.40;;;25.00;56.10;;;22.41;57.92;100398.03;5075225;28;20037;-90
2021/06/16 08:37:36;;;;;;;12.27;4.68;;;25.00;56.10;;;22.49;58.48;100388.38;5079479;28;20070;-89
2021/06/16 08:43:29;;;;;;;13.48;4.45;;;25.00;57.10;;;22.67;62.75;100383.50;5081965;28;20102;-90
2021/06/16 08:46:06;;;;;;;11.75;4.43;;;25.10;59.90;;;22.62;59.50;100379.59;5079728;28;20037;-89
2021/06/16 08:48:46;;;;;;;9.27;4.82;;;25.10;56.90;;;22.72;59.71;100376.03;5076520;28;20040;-88
2021/06/16 08:51:19;;;;;;;11.60;4.53;;;25.10;57.50;;;22.85;61.80;100377.50;5079125;28;20397;-81
2021/06/16 08:53:58;;;;;;;15.57;4.75;;;25.20;59.40;;;22.86;60.48;100370.00;5079386;28;20047;-87
2021/06/16 08:56:37;;;;;;;12.52;4.68;;;25.30;58.10;;;22.86;59.79;100365.28;5081212;28;20048;-87
2021/06/16 08:59:17;;;;;;;9.65;4.82;;;25.30;57.60;;;22.88;60.29;100373.34;5078787;28;20549;-87
2021/06/16 09:01:55;;;;;;;12.40;4.63;;;25.30;57.80;;;22.87;60.36;100366.97;5078150;28;20044;-88
2021/06/16 09:04:56;;;;;;;15.60;4.78;;;25.30;58.10;;;22.92;59.33;100364.19;5077049;28;20100;-87
2021/06/16 09:07:42;;;;;;;17.35;4.95;;;25.30;56.80;;;23.01;61.72;100364.50;5080568;28;20043;-87
2021/06/16 09:10:21;;;;;;;9.95;4.75;;;25.40;58.90;;;22.94;59.74;100364.78;5083155;28;20484;-86
2021/06/16 09:13:07;;;;;;;15.93;4.68;;;25.40;57.20;;;23.05;62.20;100362.88;5087935;28;20059;-87
2021/06/16 09:16:00;;;;;;;14.88;4.95;;;25.40;59.70;;;23.15;61.02;100370.41;5090003;28;20083;-87
2021/06/16 09:18:55;;;;;;;11.50;5.43;;;25.50;58.70;;;23.07;59.85;100359.84;5087991;28;20158;-88
2021/06/16 09:21:42;;;;;;;11.38;5.03;;;25.40;57.10;;;23.14;61.59;100363.22;5090254;28;20058;-87
2021/06/16 09:24:20;;;;;;;11.68;4.90;;;25.50;59.00;;;23.19;60.96;100357.69;5070033;28;20052;-86
2021/06/16 09:26:59;;;;;;;10.20;4.93;;;25.50;59.10;;;23.33;63.71;100353.28;5078979;28;20039;-88
2021/06/16 09:29:41;;;;;;;11.70;5.13;;;25.60;61.10;;;23.28;60.47;100358.81;5075154;28;20040;-86
2021/06/16 09:32:25;;;;;;;13.85;5.35;;;25.60;58.30;;;23.20;59.52;100353.78;5079908;28;20036;-87
2021/06/16 09:35:03;;;;;;;12.65;5.03;;;25.60;57.10;;;23.15;59.16;100351.84;5080468;28;20081;-88
2021/06/16 09:37:50;;;;;;;11.63;5.40;;;25.50;57.00;;;23.28;59.70;100350.47;5094968;28;20056;-86
2021/06/16 09:40:40;;;;;;;11.57;5.00;;;25.60;57.80;;;23.27;59.77;100348.00;5078911;28;20039;-86
2021/06/16 09:43:18;;;;;;;15.77;5.97;;;25.70;57.60;;;23.36;60.92;100346.31;5074508;28;20462;-87
2021/06/16 09:45:59;;;;;;;17.45;6.20;;;25.70;58.60;;;23.36;60.11;100347.19;5073547;28;20376;-85
2021/06/16 09:48:51;;;;;;;12.85;6.00;;;25.70;57.80;;;23.36;62.36;100349.09;5077484;28;20048;-87
2021/06/16 09:51:35;;;;;;;14.25;5.25;;;25.70;59.70;;;23.40;60.85;100337.19;5089922;28;20513;-86
2021/06/16 09:54:18;;;;;;;13.85;5.80;;;25.70;58.90;;;23.37;61.14;100334.94;5083769;28;20051;-88
2021/06/16 09:57:04;;;;;;;11.13;5.65;;;25.70;58.60;;;23.44;62.39;100331.91;5074466;28;20115;-88
2021/06/16 09:59:50;;;;;;;13.02;6.60;;;25.70;59.20;;;23.48;60.33;100329.44;5080143;28;20720;-87
2021/06/16 10:02:31;;;;;;;14.60;6.30;;;25.80;58.30;;;23.45;60.24;100327.19;5077680;28;20051;-88
2021/06/16 10:05:14;;;;;;;10.38;5.95;;;25.80;58.10;;;23.40;60.14;100326.06;5087324;28;20040;-88
2021/06/16 10:07:59;;;;;;;10.88;6.70;;;25.80;58.00;;;23.41;60.33;100322.16;5084977;28;20111;-89
2021/06/16 10:10:35;;;;;;;13.38;6.15;;;25.80;58.10;;;23.47;63.61;100311.06;5077396;28;20064;-85
2021/06/16 10:13:13;;;;;;;19.27;5.95;;;25.80;59.80;;;23.62;62.35;100316.66;5075847;28;20037;-86
2021/06/16 10:15:51;;;;;;;10.90;6.13;;;25.90;60.20;;;23.64;62.25;100319.97;5077111;28;20517;-85
2021/06/16 10:21:20;;;;;;;12.52;6.78;;;26.00;61.50;;;23.77;63.15;100299.97;5079492;28;20041;-85
2021/06/16 10:24:02;;;;;;;14.20;5.60;;;26.00;60.70;;;23.77;63.14;100301.94;5074779;28;20093;-85
2021/06/16 10:26:41;;;;;;;14.38;6.80;;;26.10;61.40;;;23.91;63.04;100307.78;5079780;28;20278;-86
2021/06/16 10:29:20;;;;;;;10.10;7.10;;;26.10;60.90;;;23.74;60.18;100308.91;5076028;28;20081;-88
2021/06/16 10:32:05;;;;;;;12.98;7.13;;;26.10;57.80;;;23.72;60.00;100311.13;5074990;28;20040;-88
2021/06/16 10:35:13;;;;;;;13.93;6.88;;;26.10;57.90;;;23.79;61.88;100308.06;5076375;28;20047;-88
2021/06/16 10:38:00;;;;;;;12.57;7.40;;;26.10;59.20;;;23.87;61.34;100299.16;5086939;28;20455;-88
2021/06/16 10:40:46;;;;;;;9.75;6.78;;;26.10;59.80;;;23.77;60.47;100301.94;5078632;28;20036;-89
2021/06/16 10:43:31;;;;;;;11.32;6.85;;;26.10;58.50;;;23.88;62.24;100297.25;5078234;28;20411;-88
2021/06/16 10:46:15;;;;;;;16.30;7.57;;;26.10;60.00;;;23.79;61.04;100295.00;5084448;28;20086;-89
2021/06/16 10:52:09;;;;;;;14.35;6.95;;;26.10;58.10;;;23.80;60.36;100302.25;5075675;28;20052;-88
2021/06/16 10:54:56;;;;;;;11.38;6.93;;;26.10;58.20;;;23.89;61.32;100287.78;5076126;28;20041;-88
2021/06/16 10:57:33;;;;;;;15.25;7.10;;;26.20;59.10;;;23.88;63.88;100292.50;5078492;28;20451;-88
2021/06/16 11:00:24;;;;;;;9.07;6.57;;;26.20;60.80;;;23.93;60.50;100288.88;5075052;28;20044;-88
2021/06/16 11:03:13;;;;;;;10.77;7.38;;;26.30;58.90;;;24.00;60.69;100295.81;5061409;28;20064;-88
2021/06/16 11:05:54;;;;;;;13.18;7.32;;;26.20;59.10;;;24.04;61.10;100286.94;5074498;28;20055;-86
2021/06/16 11:12:31;;;;;;;10.75;6.35;;;26.30;59.20;;;24.06;61.22;100279.97;5081904;28;20063;-86
2021/06/16 11:15:15;;;;;;;11.57;7.25;;;26.30;59.90;;;24.05;62.17;100278.31;5071806;28;20462;-85
2021/06/16 11:20:45;;;;;;;12.95;6.82;;;26.40;58.50;;;24.10;61.12;100275.50;5077169;28;20132;-86
2021/06/16 11:23:31;;;;;;;13.02;6.93;;;26.40;58.90;;;24.17;62.76;100273.28;5087343;28;20059;-85
2021/06/16 11:26:13;;;;;;;12.55;7.00;;;26.40;60.20;;;24.19;61.88;100265.50;5080506;28;20072;-85
2021/06/16 11:29:04;;;;;;;10.32;7.00;;;26.50;59.80;;;24.14;60.51;100273.88;5074066;28;20083;-84
2021/06/16 11:32:15;;;;;;;12.25;6.57;;;26.50;58.70;;;24.18;59.99;100268.56;5083768;28;20047;-85
2021/06/16 11:35:03;;;;;;;14.57;6.97;;;26.50;58.00;;;24.19;60.87;100254.38;5067430;28;20522;-85
2021/06/16 11:40:57;;;;;;;12.10;6.25;;;26.50;60.20;;;24.21;59.57;100245.75;5021470;28;20077;-86
2021/06/16 11:43:53;;;;;;;10.43;6.85;;;26.60;57.70;;;24.23;59.98;100246.28;5023778;28;20049;-87
2021/06/16 11:46:47;;;;;;;9.32;6.47;;;26.60;57.80;;;24.26;60.68;100242.13;5077505;28;20177;-87
2021/06/16 11:49:29;;;;;;;11.00;7.15;;;26.70;57.50;;;24.36;60.60;100226.22;5078156;28;20041;-86
2021/06/16 11:55:07;;;;;;;11.05;6.70;;;26.80;59.20;;;24.71;58.88;100226.38;5080906;28;20047;-87
2021/06/16 11:57:51;;;;;;;10.95;5.72;;;27.00;57.30;;;24.51;58.42;100232.84;5083441;28;20044;-85
2021/06/16 12:00:34;;;;;;;9.43;5.63;;;27.00;57.00;;;24.50;59.09;100232.03;5077698;28;20051;-86
2021/06/16 12:03:32;;;;;;;14.70;5.57;;;26.90;56.80;;;24.47;61.90;100229.81;5081405;28;20122;-86
2021/06/16 12:06:20;;;;;;;9.95;5.30;;;26.90;59.80;;;24.55;62.31;100232.03;5079626;28;20419;-86
2021/06/16 12:09:08;;;;;;;10.85;5.50;;;26.90;60.10;;;24.64;63.09;100220.31;5079504;28;20072;-86
2021/06/16 12:11:45;;;;;;;8.68;5.57;;;26.90;60.50;;;24.61;60.43;100226.44;5081299;28;20047;-87
2021/06/16 12:14:33;;;;;;;8.57;5.35;;;27.00;59.70;;;24.57;60.17;100224.22;5082903;28;20028;-86
2021/06/16 12:17:10;;;;;;;9.57;4.97;;;26.90;59.00;;;24.65;60.37;100225.56;5092212;28;20047;-88
2021/06/16 12:19:50;;;;;;;11.05;4.88;;;26.90;59.60;;;24.71;61.55;100220.81;5086338;28;20048;-86
2021/06/16 12:22:35;;;;;;;7.47;5.13;;;27.00;60.80;;;24.70;62.04;100211.66;5081871;28;20087;-87
2021/06/16 12:25:11;;;;;;;11.98;4.72;;;27.10;60.20;;;24.70;60.31;100208.84;5076841;28;20051;-85
2021/06/16 12:27:51;;;;;;;10.50;5.57;;;27.10;59.50;;;24.81;60.19;100204.06;5092364;28;20127;-86
2021/06/16 12:30:31;;;;;;;11.55;4.32;;;27.20;58.60;;;24.73;59.20;100202.72;5074701;28;20389;-86
2021/06/16 12:36:26;;;;;;;10.77;5.00;;;27.20;57.50;;;24.83;57.07;100206.53;5079951;28;20047;-85